sensor_id;sensor_type;location;lat;lon;timestamp;pressure;altitude;pressure_sealevel;temperature;humidity
59029;BME280;45919;51.420;5.454;2022-07-06T00:00:57;102469.38;;;13.67;64.34
59029;BME280;45919;51.420;5.454;2022-07-06T00:01:58;102468.38;;;13.61;64.76
59029;BME280;45919;51.420;5.454;2022-07-06T00:03:00;102465.78;;;13.63;64.72
59029;BME280;45919;51.420;5.454;2022-07-06T00:04:02;102461.41;;;13.63;64.72
59029;BME280;45919;51.420;5.454;2022-07-06T00:05:05;102456.06;;;13.60;64.71
59029;BME280;45919;51.420;5.454;2022-07-06T00:06:06;102468.38;;;13.61;64.87
59029;BME280;45919;51.420;5.454;2022-07-06T00:07:08;102463.03;;;13.60;64.76
59029;BME280;45919;51.420;5.454;2022-07-06T00:08:10;102456.81;;;13.56;64.95
59029;BME280;45919;51.420;5.454;2022-07-06T00:09:11;102466.56;;;13.60;64.98
59029;BME280;45919;51.420;5.454;2022-07-06T00:10:13;102464.81;;;13.59;64.93
59029;BME280;45919;51.420;5.454;2022-07-06T00:11:15;102447.81;;;13.48;65.16
59029;BME280;45919;51.420;5.454;2022-07-06T00:12:16;102460.34;;;13.57;65.40
59029;BME280;45919;51.420;5.454;2022-07-06T00:13:18;102469.94;;;13.56;65.18
59029;BME280;45919;51.420;5.454;2022-07-06T00:14:20;102441.53;;;13.43;65.32
59029;BME280;45919;51.420;5.454;2022-07-06T00:15:22;102464.69;;;13.56;65.37
59029;BME280;45919;51.420;5.454;2022-07-06T00:16:24;102461.00;;;13.51;65.57
59029;BME280;45919;51.420;5.454;2022-07-06T00:17:25;102462.88;;;13.54;65.42
59029;BME280;45919;51.420;5.454;2022-07-06T00:18:27;102459.28;;;13.51;65.43
59029;BME280;45919;51.420;5.454;2022-07-06T00:19:29;102453.03;;;13.46;65.64
59029;BME280;45919;51.420;5.454;2022-07-06T00:20:31;102461.84;;;13.48;65.85
59029;BME280;45919;51.420;5.454;2022-07-06T00:21:32;102465.28;;;13.47;65.81
59029;BME280;45919;51.420;5.454;2022-07-06T00:22:34;102441.31;;;13.35;66.00
59029;BME280;45919;51.420;5.454;2022-07-06T00:23:36;102401.19;;;13.08;66.03
59029;BME280;45919;51.420;5.454;2022-07-06T00:24:37;102427.88;;;13.24;66.04
59029;BME280;45919;51.420;5.454;2022-07-06T00:25:39;102461.72;;;13.45;66.04
59029;BME280;45919;51.420;5.454;2022-07-06T00:26:41;102469.56;;;13.44;66.10
59029;BME280;45919;51.420;5.454;2022-07-06T00:27:42;102472.13;;;13.42;66.33
59029;BME280;45919;51.420;5.454;2022-07-06T00:28:44;102426.94;;;13.22;65.97
59029;BME280;45919;51.420;5.454;2022-07-06T00:29:46;102471.25;;;13.42;66.63
59029;BME280;45919;51.420;5.454;2022-07-06T00:30:47;102470.38;;;13.41;66.23
59029;BME280;45919;51.420;5.454;2022-07-06T00:31:49;102468.53;;;13.38;67.11
59029;BME280;45919;51.420;5.454;2022-07-06T00:32:51;102471.13;;;13.37;66.64
59029;BME280;45919;51.420;5.454;2022-07-06T00:33:52;102467.56;;;13.35;66.79
59029;BME280;45919;51.420;5.454;2022-07-06T00:34:54;102469.28;;;13.34;67.28
59029;BME280;45919;51.420;5.454;2022-07-06T00:35:56;102470.97;;;13.32;67.04
59029;BME280;45919;51.420;5.454;2022-07-06T00:36:58;102440.72;;;13.14;67.31
59029;BME280;45919;51.420;5.454;2022-07-06T00:37:59;102476.97;;;13.28;67.04
59029;BME280;45919;51.420;5.454;2022-07-06T00:39:01;102471.69;;;13.26;67.70
59029;BME280;45919;51.420;5.454;2022-07-06T00:40:03;102437.75;;;13.03;67.53
59029;BME280;45919;51.420;5.454;2022-07-06T00:41:05;102461.97;;;13.24;67.28
59029;BME280;45919;51.420;5.454;2022-07-06T00:42:07;102468.13;;;13.24;67.46
59029;BME280;45919;51.420;5.454;2022-07-06T00:43:09;102466.34;;;13.23;67.62
59029;BME280;45919;51.420;5.454;2022-07-06T00:44:10;102465.38;;;13.21;67.60
59029;BME280;45919;51.420;5.454;2022-07-06T00:45:14;102454.56;;;13.10;67.61
59029;BME280;45919;51.420;5.454;2022-07-06T00:46:16;102461.84;;;13.19;67.73
59029;BME280;45919;51.420;5.454;2022-07-06T00:47:17;102469.66;;;13.18;67.80
59029;BME280;45919;51.420;5.454;2022-07-06T00:48:19;102465.19;;;13.13;67.74
59029;BME280;45919;51.420;5.454;2022-07-06T00:49:21;102397.47;;;12.72;68.01
59029;BME280;45919;51.420;5.454;2022-07-06T00:50:41;102455.44;;;13.09;67.99
59029;BME280;45919;51.420;5.454;2022-07-06T00:51:43;102470.31;;;13.10;68.08
59029;BME280;45919;51.420;5.454;2022-07-06T00:52:46;102472.09;;;13.11;68.07
59029;BME280;45919;51.420;5.454;2022-07-06T00:53:48;102477.31;;;13.10;68.22
59029;BME280;45919;51.420;5.454;2022-07-06T00:54:50;102472.84;;;13.07;68.32
59029;BME280;45919;51.420;5.454;2022-07-06T00:55:52;102475.47;;;13.07;68.28
59029;BME280;45919;51.420;5.454;2022-07-06T00:56:54;102472.03;;;13.08;68.34
59029;BME280;45919;51.420;5.454;2022-07-06T00:57:56;102464.88;;;13.04;67.73
59029;BME280;45919;51.420;5.454;2022-07-06T00:59:02;102470.22;;;13.07;68.72
59029;BME280;45919;51.420;5.454;2022-07-06T01:00:05;102472.75;;;13.04;68.31
59029;BME280;45919;51.420;5.454;2022-07-06T01:01:07;102470.91;;;13.01;68.78
59029;BME280;45919;51.420;5.454;2022-07-06T01:02:09;102455.78;;;12.93;69.01
59029;BME280;45919;51.420;5.454;2022-07-06T01:03:10;102470.78;;;12.97;68.72
59029;BME280;45919;51.420;5.454;2022-07-06T01:04:12;102469.88;;;12.96;69.08
59029;BME280;45919;51.420;5.454;2022-07-06T01:05:15;102469.84;;;12.95;69.02
59029;BME280;45919;51.420;5.454;2022-07-06T01:06:16;102460.94;;;12.89;69.36
59029;BME280;45919;51.420;5.454;2022-07-06T01:07:18;102451.09;;;12.82;69.37
59029;BME280;45919;51.420;5.454;2022-07-06T01:08:20;102466.22;;;12.91;69.52
59029;BME280;45919;51.420;5.454;2022-07-06T01:09:22;102465.28;;;12.89;70.02
59029;BME280;45919;51.420;5.454;2022-07-06T01:10:24;102470.41;;;12.84;70.06
59029;BME280;45919;51.420;5.454;2022-07-06T01:11:25;102470.34;;;12.83;69.75
59029;BME280;45919;51.420;5.454;2022-07-06T01:12:27;102471.19;;;12.82;70.09
59029;BME280;45919;51.420;5.454;2022-07-06T01:13:30;102441.91;;;12.67;70.13
59029;BME280;45919;51.420;5.454;2022-07-06T01:14:34;102464.13;;;12.79;70.30
59029;BME280;45919;51.420;5.454;2022-07-06T01:15:37;102464.94;;;12.78;70.38
59029;BME280;45919;51.420;5.454;2022-07-06T01:16:38;102466.56;;;12.74;70.46
59029;BME280;45919;51.420;5.454;2022-07-06T01:17:41;102441.50;;;12.55;70.58
59029;BME280;45919;51.420;5.454;2022-07-06T01:18:42;102454.09;;;12.67;70.31
59029;BME280;45919;51.420;5.454;2022-07-06T01:19:44;102432.47;;;12.47;70.46
59029;BME280;45919;51.420;5.454;2022-07-06T01:20:46;102461.06;;;12.66;70.43
59029;BME280;45919;51.420;5.454;2022-07-06T01:21:47;102460.97;;;12.63;70.81
59029;BME280;45919;51.420;5.454;2022-07-06T01:22:51;102467.91;;;12.61;71.22
59029;BME280;45919;51.420;5.454;2022-07-06T01:23:53;102466.09;;;12.59;71.03
59029;BME280;45919;51.420;5.454;2022-07-06T01:24:55;102461.53;;;12.53;70.82
59029;BME280;45919;51.420;5.454;2022-07-06T01:25:57;102457.28;;;12.57;71.34
59029;BME280;45919;51.420;5.454;2022-07-06T01:26:58;102461.56;;;12.54;71.65
59029;BME280;45919;51.420;5.454;2022-07-06T01:28:01;102464.19;;;12.54;71.24
59029;BME280;45919;51.420;5.454;2022-07-06T01:29:02;102441.84;;;12.38;71.36
59029;BME280;45919;51.420;5.454;2022-07-06T01:30:09;102458.09;;;12.55;71.13
59029;BME280;45919;51.420;5.454;2022-07-06T01:31:16;102372.56;;;12.04;71.39
59029;BME280;45919;51.420;5.454;2022-07-06T01:32:18;102453.31;;;12.42;71.14
59029;BME280;45919;51.420;5.454;2022-07-06T01:33:20;102447.91;;;12.37;71.23
59029;BME280;45919;51.420;5.454;2022-07-06T01:34:22;102463.94;;;12.47;71.38
59029;BME280;45919;51.420;5.454;2022-07-06T01:35:24;102461.31;;;12.47;71.33
59029;BME280;45919;51.420;5.454;2022-07-06T01:36:27;102468.22;;;12.44;71.54
59029;BME280;45919;51.420;5.454;2022-07-06T01:37:29;102462.06;;;12.42;71.97
59029;BME280;45919;51.420;5.454;2022-07-06T01:38:30;102454.88;;;12.37;72.19
59029;BME280;45919;51.420;5.454;2022-07-06T01:39:32;102463.69;;;12.39;71.83
59029;BME280;45919;51.420;5.454;2022-07-06T01:40:33;102459.28;;;12.38;72.11
59029;BME280;45919;51.420;5.454;2022-07-06T01:41:35;102466.19;;;12.36;72.22
59029;BME280;45919;51.420;5.454;2022-07-06T01:42:37;102464.41;;;12.35;72.15
59029;BME280;45919;51.420;5.454;2022-07-06T01:43:39;102467.94;;;12.35;72.25
59029;BME280;45919;51.420;5.454;2022-07-06T01:44:41;102456.28;;;12.27;72.04
59029;BME280;45919;51.420;5.454;2022-07-06T01:45:42;102465.25;;;12.34;72.32
59029;BME280;45919;51.420;5.454;2022-07-06T01:46:44;102436.81;;;12.18;72.66
59029;BME280;45919;51.420;5.454;2022-07-06T01:47:46;102459.97;;;12.32;72.63
59029;BME280;45919;51.420;5.454;2022-07-06T01:48:47;102465.16;;;12.30;72.78
59029;BME280;45919;51.420;5.454;2022-07-06T01:49:49;102457.19;;;12.27;72.48
59029;BME280;45919;51.420;5.454;2022-07-06T01:50:51;102462.56;;;12.32;72.43
59029;BME280;45919;51.420;5.454;2022-07-06T01:51:53;102442.09;;;12.20;72.49
59029;BME280;45919;51.420;5.454;2022-07-06T01:52:54;102440.22;;;12.16;72.81
59029;BME280;45919;51.420;5.454;2022-07-06T01:53:56;102464.25;;;12.30;72.68
59029;BME280;45919;51.420;5.454;2022-07-06T01:54:57;102452.91;;;12.29;72.29
59029;BME280;45919;51.420;5.454;2022-07-06T01:55:59;102455.47;;;12.28;71.92
59029;BME280;45919;51.420;5.454;2022-07-06T01:57:01;102431.22;;;12.09;72.53
59029;BME280;45919;51.420;5.454;2022-07-06T01:58:03;102461.53;;;12.27;72.85
59029;BME280;45919;51.420;5.454;2022-07-06T01:59:04;102438.31;;;12.12;72.80
59029;BME280;45919;51.420;5.454;2022-07-06T02:00:08;102455.47;;;12.28;73.11
59029;BME280;45919;51.420;5.454;2022-07-06T02:01:15;102458.19;;;12.31;73.06
59029;BME280;45919;51.420;5.454;2022-07-06T02:02:18;102453.56;;;12.24;72.68
59029;BME280;45919;51.420;5.454;2022-07-06T02:03:20;102457.09;;;12.24;72.77
59029;BME280;45919;51.420;5.454;2022-07-06T02:04:22;102456.19;;;12.24;73.18
59029;BME280;45919;51.420;5.454;2022-07-06T02:05:23;102453.56;;;12.24;72.93
59029;BME280;45919;51.420;5.454;2022-07-06T02:06:25;102465.78;;;12.23;72.88
59029;BME280;45919;51.420;5.454;2022-07-06T02:07:26;102463.09;;;12.22;73.16
59029;BME280;45919;51.420;5.454;2022-07-06T02:08:28;102451.63;;;12.18;73.09
59029;BME280;45919;51.420;5.454;2022-07-06T02:09:30;102449.63;;;12.11;73.75
59029;BME280;45919;51.420;5.454;2022-07-06T02:10:31;102462.13;;;12.18;73.22
59029;BME280;45919;51.420;5.454;2022-07-06T02:11:33;102462.06;;;12.16;73.41
59029;BME280;45919;51.420;5.454;2022-07-06T02:12:35;102457.72;;;12.17;73.71
59029;BME280;45919;51.420;5.454;2022-07-06T02:13:37;102462.72;;;12.11;73.66
59029;BME280;45919;51.420;5.454;2022-07-06T02:14:39;102463.69;;;12.13;73.83
59029;BME280;45919;51.420;5.454;2022-07-06T02:15:40;102462.72;;;12.11;74.39
59029;BME280;45919;51.420;5.454;2022-07-06T02:16:42;102447.56;;;12.02;73.73
59029;BME280;45919;51.420;5.454;2022-07-06T02:17:43;102459.94;;;12.06;74.26
59029;BME280;45919;51.420;5.454;2022-07-06T02:18:45;102456.31;;;12.02;74.52
59029;BME280;45919;51.420;5.454;2022-07-06T02:19:47;102463.41;;;12.06;74.77
59029;BME280;45919;51.420;5.454;2022-07-06T02:20:48;102462.56;;;12.06;74.55
59029;BME280;45919;51.420;5.454;2022-07-06T02:21:50;102468.63;;;12.05;74.73
59029;BME280;45919;51.420;5.454;2022-07-06T02:22:51;102427.66;;;11.82;74.88
59029;BME280;45919;51.420;5.454;2022-07-06T02:23:53;102458.13;;;12.05;74.93
59029;BME280;45919;51.420;5.454;2022-07-06T02:24:54;102440.19;;;11.91;75.10
59029;BME280;45919;51.420;5.454;2022-07-06T02:25:56;102456.38;;;12.04;74.98
59029;BME280;45919;51.420;5.454;2022-07-06T02:26:57;102462.44;;;12.03;74.84
59029;BME280;45919;51.420;5.454;2022-07-06T02:27:59;102455.50;;;12.05;74.94
59029;BME280;45919;51.420;5.454;2022-07-06T02:29:01;102443.91;;;11.96;74.77
59029;BME280;45919;51.420;5.454;2022-07-06T02:30:03;102452.91;;;12.05;75.25
59029;BME280;45919;51.420;5.454;2022-07-06T02:31:05;102464.28;;;12.05;75.22
59029;BME280;45919;51.420;5.454;2022-07-06T02:32:07;102456.38;;;12.04;75.19
59029;BME280;45919;51.420;5.454;2022-07-06T02:33:09;102439.31;;;11.91;75.42
59029;BME280;45919;51.420;5.454;2022-07-06T02:34:11;102454.56;;;12.03;75.12
59029;BME280;45919;51.420;5.454;2022-07-06T02:35:12;102453.75;;;12.04;75.02
59029;BME280;45919;51.420;5.454;2022-07-06T02:36:14;102454.63;;;12.04;74.99
59029;BME280;45919;51.420;5.454;2022-07-06T02:37:15;102456.38;;;12.04;75.25
59029;BME280;45919;51.420;5.454;2022-07-06T02:38:17;102457.31;;;12.06;75.08
59029;BME280;45919;51.420;5.454;2022-07-06T02:39:18;102458.97;;;12.04;75.40
59029;BME280;45919;51.420;5.454;2022-07-06T02:40:20;102442.13;;;11.97;75.08
59029;BME280;45919;51.420;5.454;2022-07-06T02:41:22;102451.13;;;12.04;75.46
59029;BME280;45919;51.420;5.454;2022-07-06T02:42:23;102446.72;;;12.03;75.40
59029;BME280;45919;51.420;5.454;2022-07-06T02:43:25;102458.97;;;12.04;75.35
59029;BME280;45919;51.420;5.454;2022-07-06T02:44:26;102449.28;;;12.01;75.29
59029;BME280;45919;51.420;5.454;2022-07-06T02:45:28;102427.91;;;11.89;75.19
59029;BME280;45919;51.420;5.454;2022-07-06T02:46:30;102455.56;;;12.06;75.25
59029;BME280;45919;51.420;5.454;2022-07-06T02:47:32;102417.25;;;11.84;75.18
59029;BME280;45919;51.420;5.454;2022-07-06T02:48:33;102456.38;;;12.04;75.25
59029;BME280;45919;51.420;5.454;2022-07-06T02:49:35;102447.59;;;12.03;75.28
59029;BME280;45919;51.420;5.454;2022-07-06T02:50:36;102451.00;;;12.01;75.38
59029;BME280;45919;51.420;5.454;2022-07-06T02:51:38;102396.72;;;11.70;75.39
59029;BME280;45919;51.420;5.454;2022-07-06T02:52:39;102453.53;;;11.98;75.39
59029;BME280;45919;51.420;5.454;2022-07-06T02:53:41;102456.13;;;11.98;75.58
59029;BME280;45919;51.420;5.454;2022-07-06T02:54:43;102463.09;;;11.97;75.52
59029;BME280;45919;51.420;5.454;2022-07-06T02:55:44;102463.09;;;11.97;75.56
59029;BME280;45919;51.420;5.454;2022-07-06T02:56:46;102460.44;;;11.95;75.71
59029;BME280;45919;51.420;5.454;2022-07-06T02:57:52;102462.22;;;11.96;75.59
59029;BME280;45919;51.420;5.454;2022-07-06T02:58:53;102463.03;;;11.95;75.40
59029;BME280;45919;51.420;5.454;2022-07-06T02:59:55;102461.28;;;11.94;75.35
59029;BME280;45919;51.420;5.454;2022-07-06T03:00:57;102458.66;;;11.94;75.55
59029;BME280;45919;51.420;5.454;2022-07-06T03:01:58;102458.53;;;11.91;75.67
59029;BME280;45919;51.420;5.454;2022-07-06T03:03:00;102456.84;;;11.93;75.23
59029;BME280;45919;51.420;5.454;2022-07-06T03:04:01;102458.59;;;11.93;75.54
59029;BME280;45919;51.420;5.454;2022-07-06T03:05:03;102462.94;;;11.92;75.56
59029;BME280;45919;51.420;5.454;2022-07-06T03:06:05;102461.28;;;11.94;75.60
59029;BME280;45919;51.420;5.454;2022-07-06T03:07:07;102456.81;;;11.92;75.35
59029;BME280;45919;51.420;5.454;2022-07-06T03:08:08;102460.28;;;11.91;75.20
59029;BME280;45919;51.420;5.454;2022-07-06T03:09:10;102456.75;;;11.90;75.00
59029;BME280;45919;51.420;5.454;2022-07-06T03:10:12;102456.69;;;11.89;75.19
59029;BME280;45919;51.420;5.454;2022-07-06T03:11:13;102460.22;;;11.89;75.54
59029;BME280;45919;51.420;5.454;2022-07-06T03:12:15;102459.38;;;11.90;75.71
59029;BME280;45919;51.420;5.454;2022-07-06T03:13:17;102459.31;;;11.89;75.60
59029;BME280;45919;51.420;5.454;2022-07-06T03:14:19;102449.47;;;11.81;75.65
59029;BME280;45919;51.420;5.454;2022-07-06T03:15:20;102455.75;;;11.87;75.91
59029;BME280;45919;51.420;5.454;2022-07-06T03:16:22;102401.47;;;11.56;75.29
59029;BME280;45919;51.420;5.454;2022-07-06T03:17:23;102451.22;;;11.82;75.46
59029;BME280;45919;51.420;5.454;2022-07-06T03:18:25;102449.41;;;11.80;75.59
59029;BME280;45919;51.420;5.454;2022-07-06T03:19:27;102463.59;;;11.87;75.46
59029;BME280;45919;51.420;5.454;2022-07-06T03:20:29;102462.72;;;11.86;75.43
59029;BME280;45919;51.420;5.454;2022-07-06T03:21:30;102384.25;;;11.39;75.45
59029;BME280;45919;51.420;5.454;2022-07-06T03:22:32;102465.16;;;11.81;75.60
59029;BME280;45919;51.420;5.454;2022-07-06T03:23:34;102461.75;;;11.84;75.28
59029;BME280;45919;51.420;5.454;2022-07-06T03:24:36;102476.66;;;11.85;75.34
59029;BME280;45919;51.420;5.454;2022-07-06T03:25:37;102468.78;;;11.85;75.25
59029;BME280;45919;51.420;5.454;2022-07-06T03:26:39;102473.13;;;11.84;75.21
59029;BME280;45919;51.420;5.454;2022-07-06T03:27:40;102468.78;;;11.85;75.19
59029;BME280;45919;51.420;5.454;2022-07-06T03:28:42;102467.84;;;11.83;75.29
59029;BME280;45919;51.420;5.454;2022-07-06T03:29:43;102462.56;;;11.81;75.21
59029;BME280;45919;51.420;5.454;2022-07-06T03:30:45;102476.56;;;11.82;75.46
59029;BME280;45919;51.420;5.454;2022-07-06T03:31:46;102473.94;;;11.82;75.46
59029;BME280;45919;51.420;5.454;2022-07-06T03:32:48;102466.94;;;11.82;75.41
59029;BME280;45919;51.420;5.454;2022-07-06T03:33:51;102467.00;;;11.84;75.41
59029;BME280;45919;51.420;5.454;2022-07-06T03:34:52;102452.59;;;11.71;75.35
59029;BME280;45919;51.420;5.454;2022-07-06T03:35:54;102467.00;;;11.84;75.09
59029;BME280;45919;51.420;5.454;2022-07-06T03:36:56;102461.75;;;11.84;75.15
59029;BME280;45919;51.420;5.454;2022-07-06T03:37:57;102461.84;;;11.86;74.82
59029;BME280;45919;51.420;5.454;2022-07-06T03:38:59;102465.31;;;11.86;75.09
59029;BME280;45919;51.420;5.454;2022-07-06T03:40:00;102438.56;;;11.69;75.17
59029;BME280;45919;51.420;5.454;2022-07-06T03:41:02;102466.19;;;11.85;75.15
59029;BME280;45919;51.420;5.454;2022-07-06T03:42:04;102480.16;;;11.86;74.95
59029;BME280;45919;51.420;5.454;2022-07-06T03:43:06;102426.91;;;11.60;75.23
59029;BME280;45919;51.420;5.454;2022-07-06T03:44:07;102461.75;;;11.84;75.27
59029;BME280;45919;51.420;5.454;2022-07-06T03:45:09;102471.41;;;11.85;75.30
59029;BME280;45919;51.420;5.454;2022-07-06T03:46:11;102464.47;;;11.86;75.26
59029;BME280;45919;51.420;5.454;2022-07-06T03:47:13;102453.69;;;11.78;75.13
59029;BME280;45919;51.420;5.454;2022-07-06T03:48:14;102468.00;;;11.88;75.06
59029;BME280;45919;51.420;5.454;2022-07-06T03:49:16;102472.38;;;11.87;75.22
59029;BME280;45919;51.420;5.454;2022-07-06T03:50:18;102470.56;;;11.86;75.39
59029;BME280;45919;51.420;5.454;2022-07-06T03:51:19;102470.63;;;11.88;75.21
59029;BME280;45919;51.420;5.454;2022-07-06T03:52:21;102471.47;;;11.87;75.38
59029;BME280;45919;51.420;5.454;2022-07-06T03:53:23;102474.75;;;11.81;75.12
59029;BME280;45919;51.420;5.454;2022-07-06T03:54:24;102473.22;;;11.88;75.53
59029;BME280;45919;51.420;5.454;2022-07-06T03:55:26;102481.88;;;11.85;75.22
59029;BME280;45919;51.420;5.454;2022-07-06T03:56:28;102476.84;;;11.91;75.46
59029;BME280;45919;51.420;5.454;2022-07-06T03:57:29;102468.00;;;11.88;75.41
59029;BME280;45919;51.420;5.454;2022-07-06T03:58:31;102469.13;;;11.94;75.19
59029;BME280;45919;51.420;5.454;2022-07-06T03:59:33;102450.38;;;11.82;75.15
59029;BME280;45919;51.420;5.454;2022-07-06T04:00:34;102478.81;;;11.97;75.21
59029;BME280;45919;51.420;5.454;2022-07-06T04:01:36;102473.63;;;11.99;75.25
59029;BME280;45919;51.420;5.454;2022-07-06T04:02:38;102478.09;;;12.01;75.06
59029;BME280;45919;51.420;5.454;2022-07-06T04:03:40;102473.81;;;12.03;75.00
59029;BME280;45919;51.420;5.454;2022-07-06T04:04:41;102474.75;;;12.05;74.93
59029;BME280;45919;51.420;5.454;2022-07-06T04:05:43;102465.16;;;12.06;74.73
59029;BME280;45919;51.420;5.454;2022-07-06T04:06:45;102468.66;;;12.06;74.87
59029;BME280;45919;51.420;5.454;2022-07-06T04:07:47;102471.28;;;12.06;74.66
59029;BME280;45919;51.420;5.454;2022-07-06T04:08:49;102431.19;;;11.83;74.80
59029;BME280;45919;51.420;5.454;2022-07-06T04:09:51;102469.69;;;12.10;74.63
59029;BME280;45919;51.420;5.454;2022-07-06T04:10:52;102443.81;;;11.95;74.77
59029;BME280;45919;51.420;5.454;2022-07-06T04:11:54;102461.88;;;12.12;74.52
59029;BME280;45919;51.420;5.454;2022-07-06T04:12:55;102476.09;;;12.18;74.67
59029;BME280;45919;51.420;5.454;2022-07-06T04:13:57;102470.97;;;12.22;74.33
59029;BME280;45919;51.420;5.454;2022-07-06T04:14:59;102464.00;;;12.22;74.20
59029;BME280;45919;51.420;5.454;2022-07-06T04:16:00;102471.19;;;12.28;74.15
59029;BME280;45919;51.420;5.454;2022-07-06T04:17:02;102461.72;;;12.31;73.98
59029;BME280;45919;51.420;5.454;2022-07-06T04:18:24;102465.47;;;12.40;73.66
59029;BME280;45919;51.420;5.454;2022-07-06T04:19:26;102464.88;;;12.49;73.45
59029;BME280;45919;51.420;5.454;2022-07-06T04:20:27;102455.66;;;12.60;73.09
59029;BME280;45919;51.420;5.454;2022-07-06T04:21:29;102456.91;;;12.72;72.41
59029;BME280;45919;51.420;5.454;2022-07-06T04:22:31;102432.31;;;12.68;72.07
59029;BME280;45919;51.420;5.454;2022-07-06T04:23:32;102454.16;;;12.96;71.74
59029;BME280;45919;51.420;5.454;2022-07-06T04:24:34;102458.00;;;13.08;71.11
59029;BME280;45919;51.420;5.454;2022-07-06T04:25:35;102461.75;;;13.16;70.70
59029;BME280;45919;51.420;5.454;2022-07-06T04:26:37;102450.59;;;13.23;70.21
59029;BME280;45919;51.420;5.454;2022-07-06T04:27:38;102452.50;;;13.29;69.92
59029;BME280;45919;51.420;5.454;2022-07-06T04:28:40;102453.69;;;13.39;69.73
59029;BME280;45919;51.420;5.454;2022-07-06T04:29:41;102452.06;;;13.44;69.33
59029;BME280;45919;51.420;5.454;2022-07-06T04:30:43;102441.38;;;13.38;68.90
59029;BME280;45919;51.420;5.454;2022-07-06T04:31:45;102449.53;;;13.47;69.02
59029;BME280;45919;51.420;5.454;2022-07-06T04:32:46;102450.59;;;13.53;68.92
59029;BME280;45919;51.420;5.454;2022-07-06T04:33:48;102455.91;;;13.54;68.95
59029;BME280;45919;51.420;5.454;2022-07-06T04:34:49;102456.00;;;13.57;68.96
59029;BME280;45919;51.420;5.454;2022-07-06T04:35:51;102446.50;;;13.62;68.64
59029;BME280;45919;51.420;5.454;2022-07-06T04:36:53;102446.00;;;13.76;68.47
59029;BME280;45919;51.420;5.454;2022-07-06T04:37:54;102415.22;;;13.70;67.81
59029;BME280;45919;51.420;5.454;2022-07-06T04:38:56;102446.59;;;13.98;67.41
59029;BME280;45919;51.420;5.454;2022-07-06T04:39:57;102442.47;;;14.08;66.95
59029;BME280;45919;51.420;5.454;2022-07-06T04:40:59;102423.91;;;14.02;66.25
59029;BME280;45919;51.420;5.454;2022-07-06T04:42:00;102445.56;;;14.27;66.22
59029;BME280;45919;51.420;5.454;2022-07-06T04:43:02;102451.09;;;14.38;65.81
59029;BME280;45919;51.420;5.454;2022-07-06T04:44:04;102449.66;;;14.49;65.57
59029;BME280;45919;51.420;5.454;2022-07-06T04:45:06;102451.66;;;14.61;65.65
59029;BME280;45919;51.420;5.454;2022-07-06T04:46:08;102442.31;;;14.73;64.56
59029;BME280;45919;51.420;5.454;2022-07-06T04:47:09;102451.31;;;14.82;64.25
59029;BME280;45919;51.420;5.454;2022-07-06T04:48:11;102444.50;;;14.91;64.29
59029;BME280;45919;51.420;5.454;2022-07-06T04:49:12;102442.00;;;14.97;63.62
59029;BME280;45919;51.420;5.454;2022-07-06T04:50:14;102442.22;;;15.08;63.85
59029;BME280;45919;51.420;5.454;2022-07-06T04:51:16;102439.91;;;15.21;63.34
59029;BME280;45919;51.420;5.454;2022-07-06T04:52:17;102440.91;;;15.27;62.63
59029;BME280;45919;51.420;5.454;2022-07-06T04:53:19;102445.47;;;15.36;62.38
59029;BME280;45919;51.420;5.454;2022-07-06T04:54:21;102435.09;;;15.44;62.17
59029;BME280;45919;51.420;5.454;2022-07-06T04:55:22;102440.66;;;15.58;61.56
59029;BME280;45919;51.420;5.454;2022-07-06T04:56:24;102439.97;;;15.69;61.57
59029;BME280;45919;51.420;5.454;2022-07-06T04:57:26;102440.09;;;15.75;60.78
59029;BME280;45919;51.420;5.454;2022-07-06T04:58:29;102417.09;;;15.66;60.60
59029;BME280;45919;51.420;5.454;2022-07-06T04:59:31;102435.03;;;15.86;60.78
59029;BME280;45919;51.420;5.454;2022-07-06T05:00:32;102397.91;;;15.72;60.35
59029;BME280;45919;51.420;5.454;2022-07-06T05:01:34;102447.50;;;15.96;60.20
59029;BME280;45919;51.420;5.454;2022-07-06T05:02:36;102441.50;;;16.02;59.93
59029;BME280;45919;51.420;5.454;2022-07-06T05:03:38;102374.09;;;15.67;59.54
59029;BME280;45919;51.420;5.454;2022-07-06T05:04:41;102441.81;;;16.19;59.48
59029;BME280;45919;51.420;5.454;2022-07-06T05:05:43;102440.03;;;16.20;59.24
59029;BME280;45919;51.420;5.454;2022-07-06T05:06:45;102446.41;;;16.31;59.19
59029;BME280;45919;51.420;5.454;2022-07-06T05:07:47;102450.88;;;16.37;58.77
59029;BME280;45919;51.420;5.454;2022-07-06T05:08:48;102450.09;;;16.43;58.67
59029;BME280;45919;51.420;5.454;2022-07-06T05:09:50;102453.69;;;16.48;58.59
59029;BME280;45919;51.420;5.454;2022-07-06T05:10:52;102445.84;;;16.53;57.91
59029;BME280;45919;51.420;5.454;2022-07-06T05:11:54;102450.34;;;16.58;57.86
59029;BME280;45919;51.420;5.454;2022-07-06T05:12:55;102446.94;;;16.66;57.54
59029;BME280;45919;51.420;5.454;2022-07-06T05:13:57;102452.19;;;16.64;57.65
59029;BME280;45919;51.420;5.454;2022-07-06T05:14:59;102458.50;;;16.74;57.38
59029;BME280;45919;51.420;5.454;2022-07-06T05:16:01;102450.63;;;16.76;56.80
59029;BME280;45919;51.420;5.454;2022-07-06T05:17:03;102456.03;;;16.83;57.02
59029;BME280;45919;51.420;5.454;2022-07-06T05:18:04;102443.63;;;16.78;56.96
59029;BME280;45919;51.420;5.454;2022-07-06T05:19:06;102449.09;;;16.93;56.84
59029;BME280;45919;51.420;5.454;2022-07-06T05:20:08;102453.59;;;17.01;56.58
59029;BME280;45919;51.420;5.454;2022-07-06T05:21:09;102460.69;;;17.03;56.79
59029;BME280;45919;51.420;5.454;2022-07-06T05:22:11;102448.31;;;16.99;56.43
59029;BME280;45919;51.420;5.454;2022-07-06T05:23:13;102451.88;;;17.01;56.52
59029;BME280;45919;51.420;5.454;2022-07-06T05:24:15;102457.09;;;16.98;56.38